sensor_id;sensor_type;location;lat;lon;timestamp;temperature;humidity
9699;DHT22;10089;47.876;8.346;2022-12-07T00:01:15;0.70;99.90
9699;DHT22;10089;47.876;8.346;2022-12-07T00:03:43;0.70;99.90
9699;DHT22;10089;47.876;8.346;2022-12-07T00:06:11;0.70;99.90
9699;DHT22;10089;47.876;8.346;2022-12-07T00:08:38;0.70;99.90
9699;DHT22;10089;47.876;8.346;2022-12-07T00:11:12;0.60;99.90
9699;DHT22;10089;47.876;8.346;2022-12-07T00:13:38;0.70;99.90
9699;DHT22;10089;47.876;8.346;2022-12-07T00:18:30;0.70;99.90
9699;DHT22;10089;47.876;8.346;2022-12-07T00:21:04;0.70;99.90
9699;DHT22;10089;47.876;8.346;2022-12-07T00:23:30;0.70;99.90
9699;DHT22;10089;47.876;8.346;2022-12-07T00:26:02;0.70;99.90
9699;DHT22;10089;47.876;8.346;2022-12-07T00:28:27;0.70;99.90
9699;DHT22;10089;47.876;8.346;2022-12-07T00:31:00;0.60;99.90
9699;DHT22;10089;47.876;8.346;2022-12-07T00:33:26;0.70;99.90
9699;DHT22;10089;47.876;8.346;2022-12-07T00:35:57;0.70;99.90
9699;DHT22;10089;47.876;8.346;2022-12-07T00:38:24;0.70;99.90
9699;DHT22;10089;47.876;8.346;2022-12-07T00:41:01;0.70;99.90
9699;DHT22;10089;47.876;8.346;2022-12-07T00:43:28;0.70;99.90
9699;DHT22;10089;47.876;8.346;2022-12-07T00:45:54;0.70;99.90
9699;DHT22;10089;47.876;8.346;2022-12-07T00:48:20;0.70;99.90
9699;DHT22;10089;47.876;8.346;2022-12-07T00:50:47;0.70;99.90
9699;DHT22;10089;47.876;8.346;2022-12-07T00:53:12;0.70;99.90
9699;DHT22;10089;47.876;8.346;2022-12-07T00:55:38;0.70;99.90
9699;DHT22;10089;47.876;8.346;2022-12-07T00:58:04;0.70;99.90
9699;DHT22;10089;47.876;8.346;2022-12-07T01:00:30;0.70;99.90
9699;DHT22;10089;47.876;8.346;2022-12-07T01:02:55;0.70;99.90
9699;DHT22;10089;47.876;8.346;2022-12-07T01:05:21;0.70;99.90
9699;DHT22;10089;47.876;8.346;2022-12-07T01:07:47;0.70;99.90
9699;DHT22;10089;47.876;8.346;2022-12-07T01:10:14;0.70;99.90
9699;DHT22;10089;47.876;8.346;2022-12-07T01:12:40;0.70;99.90
9699;DHT22;10089;47.876;8.346;2022-12-07T01:15:06;0.70;99.90
9699;DHT22;10089;47.876;8.346;2022-12-07T01:17:32;0.70;99.90
9699;DHT22;10089;47.876;8.346;2022-12-07T01:19:58;0.70;99.90
9699;DHT22;10089;47.876;8.346;2022-12-07T01:22:23;0.80;99.90
9699;DHT22;10089;47.876;8.346;2022-12-07T01:24:49;0.70;99.90
9699;DHT22;10089;47.876;8.346;2022-12-07T01:27:15;0.70;99.90
9699;DHT22;10089;47.876;8.346;2022-12-07T01:29:41;0.80;99.90
9699;DHT22;10089;47.876;8.346;2022-12-07T01:32:07;0.80;99.90
9699;DHT22;10089;47.876;8.346;2022-12-07T01:34:32;0.70;99.90
9699;DHT22;10089;47.876;8.346;2022-12-07T01:36:58;0.70;99.90
9699;DHT22;10089;47.876;8.346;2022-12-07T01:39:24;0.70;99.90
9699;DHT22;10089;47.876;8.346;2022-12-07T01:41:50;0.70;99.90
9699;DHT22;10089;47.876;8.346;2022-12-07T01:44:25;0.70;99.90
9699;DHT22;10089;47.876;8.346;2022-12-07T01:46:59;0.70;99.90
9699;DHT22;10089;47.876;8.346;2022-12-07T01:49:35;0.80;99.90
9699;DHT22;10089;47.876;8.346;2022-12-07T01:54:31;0.80;99.90
9699;DHT22;10089;47.876;8.346;2022-12-07T01:56:57;0.80;99.90
9699;DHT22;10089;47.876;8.346;2022-12-07T01:59:24;0.70;99.90
9699;DHT22;10089;47.876;8.346;2022-12-07T02:01:52;0.80;99.90
9699;DHT22;10089;47.876;8.346;2022-12-07T02:04:18;0.80;99.90
9699;DHT22;10089;47.876;8.346;2022-12-07T02:06:45;0.80;99.90
9699;DHT22;10089;47.876;8.346;2022-12-07T02:09:11;0.80;99.90
9699;DHT22;10089;47.876;8.346;2022-12-07T02:11:38;0.80;99.90
9699;DHT22;10089;47.876;8.346;2022-12-07T02:14:05;0.80;99.90
9699;DHT22;10089;47.876;8.346;2022-12-07T02:20:15;0.80;99.90
9699;DHT22;10089;47.876;8.346;2022-12-07T02:28:36;0.70;99.90
9699;DHT22;10089;47.876;8.346;2022-12-07T02:31:18;0.70;99.90
9699;DHT22;10089;47.876;8.346;2022-12-07T02:33:56;0.70;99.90
9699;DHT22;10089;47.876;8.346;2022-12-07T02:36:28;0.80;99.90
9699;DHT22;10089;47.876;8.346;2022-12-07T02:39:03;0.80;99.90
9699;DHT22;10089;47.876;8.346;2022-12-07T02:41:44;0.80;99.90
9699;DHT22;10089;47.876;8.346;2022-12-07T02:44:14;0.70;99.90
9699;DHT22;10089;47.876;8.346;2022-12-07T02:46:55;0.80;99.90
9699;DHT22;10089;47.876;8.346;2022-12-07T02:49:24;0.80;99.90
9699;DHT22;10089;47.876;8.346;2022-12-07T02:51:52;1.30;99.90
9699;DHT22;10089;47.876;8.346;2022-12-07T02:54:19;0.80;99.90
9699;DHT22;10089;47.876;8.346;2022-12-07T02:59:57;0.80;99.90
9699;DHT22;10089;47.876;8.346;2022-12-07T03:02:31;0.80;99.90
9699;DHT22;10089;47.876;8.346;2022-12-07T03:15:55;0.80;99.90
9699;DHT22;10089;47.876;8.346;2022-12-07T03:18:25;0.80;99.90
9699;DHT22;10089;47.876;8.346;2022-12-07T03:20:56;1.10;99.90
9699;DHT22;10089;47.876;8.346;2022-12-07T03:23:25;0.80;99.90
9699;DHT22;10089;47.876;8.346;2022-12-07T03:25:56;0.80;99.90
9699;DHT22;10089;47.876;8.346;2022-12-07T03:28:28;0.70;99.90
9699;DHT22;10089;47.876;8.346;2022-12-07T03:34:07;0.60;99.90
9699;DHT22;10089;47.876;8.346;2022-12-07T03:36:40;0.60;99.90
9699;DHT22;10089;47.876;8.346;2022-12-07T03:41:47;0.60;99.90
9699;DHT22;10089;47.876;8.346;2022-12-07T03:44:14;0.50;99.90
9699;DHT22;10089;47.876;8.346;2022-12-07T03:47:06;0.50;99.90
9699;DHT22;10089;47.876;8.346;2022-12-07T03:49:49;0.50;99.90
9699;DHT22;10089;47.876;8.346;2022-12-07T03:55:05;0.50;99.90
9699;DHT22;10089;47.876;8.346;2022-12-07T03:57:33;0.60;99.90
9699;DHT22;10089;47.876;8.346;2022-12-07T03:59:59;0.60;99.90
9699;DHT22;10089;47.876;8.346;2022-12-07T04:02:27;0.50;99.90
9699;DHT22;10089;47.876;8.346;2022-12-07T04:04:54;0.50;99.90
9699;DHT22;10089;47.876;8.346;2022-12-07T04:07:20;0.50;99.90
9699;DHT22;10089;47.876;8.346;2022-12-07T04:09:45;0.50;99.90
9699;DHT22;10089;47.876;8.346;2022-12-07T04:12:11;1.00;99.90
9699;DHT22;10089;47.876;8.346;2022-12-07T04:14:36;0.40;99.90
9699;DHT22;10089;47.876;8.346;2022-12-07T04:17:02;0.40;99.90
9699;DHT22;10089;47.876;8.346;2022-12-07T04:19:31;0.40;99.90
9699;DHT22;10089;47.876;8.346;2022-12-07T04:21:58;0.40;99.90
9699;DHT22;10089;47.876;8.346;2022-12-07T04:24:24;0.80;99.90
9699;DHT22;10089;47.876;8.346;2022-12-07T04:26:50;0.40;99.90
9699;DHT22;10089;47.876;8.346;2022-12-07T04:29:17;0.70;99.90
9699;DHT22;10089;47.876;8.346;2022-12-07T04:31:43;0.40;99.90
9699;DHT22;10089;47.876;8.346;2022-12-07T04:34:09;0.50;99.90
9699;DHT22;10089;47.876;8.346;2022-12-07T04:36:35;0.50;99.90
9699;DHT22;10089;47.876;8.346;2022-12-07T04:39:02;0.50;99.90
9699;DHT22;10089;47.876;8.346;2022-12-07T04:41:27;0.50;99.90
9699;DHT22;10089;47.876;8.346;2022-12-07T04:44:04;0.40;99.90
9699;DHT22;10089;47.876;8.346;2022-12-07T04:46:33;0.40;99.90
9699;DHT22;10089;47.876;8.346;2022-12-07T04:48:58;0.40;99.90
9699;DHT22;10089;47.876;8.346;2022-12-07T04:51:26;0.40;99.90
9699;DHT22;10089;47.876;8.346;2022-12-07T04:53:52;0.40;99.90
9699;DHT22;10089;47.876;8.346;2022-12-07T04:56:18;0.40;99.90
9699;DHT22;10089;47.876;8.346;2022-12-07T04:58:45;0.40;99.90
9699;DHT22;10089;47.876;8.346;2022-12-07T05:01:12;0.40;99.90
9699;DHT22;10089;47.876;8.346;2022-12-07T05:03:38;0.40;99.90
9699;DHT22;10089;47.876;8.346;2022-12-07T05:06:04;0.40;99.90
9699;DHT22;10089;47.876;8.346;2022-12-07T05:08:30;0.40;99.90
9699;DHT22;10089;47.876;8.346;2022-12-07T05:10:57;0.60;99.90
9699;DHT22;10089;47.876;8.346;2022-12-07T05:13:22;0.50;99.90
9699;DHT22;10089;47.876;8.346;2022-12-07T05:15:48;0.40;99.90
9699;DHT22;10089;47.876;8.346;2022-12-07T05:18:14;0.50;99.90
9699;DHT22;10089;47.876;8.346;2022-12-07T05:20:41;0.50;99.90
9699;DHT22;10089;47.876;8.346;2022-12-07T05:23:07;0.60;99.90
9699;DHT22;10089;47.876;8.346;2022-12-07T05:25:32;0.70;99.90
9699;DHT22;10089;47.876;8.346;2022-12-07T05:27:58;0.60;99.90
9699;DHT22;10089;47.876;8.346;2022-12-07T05:30:24;0.50;99.90
9699;DHT22;10089;47.876;8.346;2022-12-07T05:32:51;0.60;99.90
9699;DHT22;10089;47.876;8.346;2022-12-07T05:35:17;0.50;99.90
9699;DHT22;10089;47.876;8.346;2022-12-07T05:37:44;0.60;99.90
9699;DHT22;10089;47.876;8.346;2022-12-07T05:40:10;0.70;99.90
9699;DHT22;10089;47.876;8.346;2022-12-07T05:42:36;0.60;99.90
9699;DHT22;10089;47.876;8.346;2022-12-07T05:45:02;0.50;99.90
9699;DHT22;10089;47.876;8.346;2022-12-07T05:47:27;0.50;99.90
9699;DHT22;10089;47.876;8.346;2022-12-07T05:49:53;0.50;99.90
9699;DHT22;10089;47.876;8.346;2022-12-07T05:52:19;0.60;99.90
9699;DHT22;10089;47.876;8.346;2022-12-07T05:54:44;0.40;99.90
9699;DHT22;10089;47.876;8.346;2022-12-07T05:57:10;1.20;99.90
9699;DHT22;10089;47.876;8.346;2022-12-07T05:59:36;0.40;99.90
9699;DHT22;10089;47.876;8.346;2022-12-07T06:02:07;0.40;99.90
9699;DHT22;10089;47.876;8.346;2022-12-07T06:04:37;0.40;99.90
9699;DHT22;10089;47.876;8.346;2022-12-07T06:07:03;0.40;38.60
9699;DHT22;10089;47.876;8.346;2022-12-07T06:09:29;0.30;35.80
9699;DHT22;10089;47.876;8.346;2022-12-07T06:11:56;0.60;67.00
9699;DHT22;10089;47.876;8.346;2022-12-07T06:14:40;0.40;99.10
9699;DHT22;10089;47.876;8.346;2022-12-07T06:17:07;0.40;88.90
9699;DHT22;10089;47.876;8.346;2022-12-07T06:19:33;0.30;54.80
9699;DHT22;10089;47.876;8.346;2022-12-07T06:21:59;0.30;22.80
9699;DHT22;10089;47.876;8.346;2022-12-07T06:24:25;0.20;88.10
9699;DHT22;10089;47.876;8.346;2022-12-07T06:26:51;0.30;49.10
9699;DHT22;10089;47.876;8.346;2022-12-07T06:29:17;0.20;65.90
9699;DHT22;10089;47.876;8.346;2022-12-07T06:31:43;0.10;25.50
9699;DHT22;10089;47.876;8.346;2022-12-07T06:34:12;0.00;82.70
9699;DHT22;10089;47.876;8.346;2022-12-07T06:36:38;0.00;91.30
9699;DHT22;10089;47.876;8.346;2022-12-07T06:39:04;0.00;99.90
9699;DHT22;10089;47.876;8.346;2022-12-07T06:41:31;0.00;99.90
9699;DHT22;10089;47.876;8.346;2022-12-07T06:43:57;-0.10;99.90
9699;DHT22;10089;47.876;8.346;2022-12-07T06:46:23;0.10;99.90
9699;DHT22;10089;47.876;8.346;2022-12-07T06:48:49;0.10;99.90
9699;DHT22;10089;47.876;8.346;2022-12-07T06:51:16;-0.20;99.90
9699;DHT22;10089;47.876;8.346;2022-12-07T06:53:41;0.00;99.90
9699;DHT22;10089;47.876;8.346;2022-12-07T06:56:07;-0.20;99.90
9699;DHT22;10089;47.876;8.346;2022-12-07T06:58:33;-0.20;99.90
9699;DHT22;10089;47.876;8.346;2022-12-07T07:00:58;-0.10;99.90
9699;DHT22;10089;47.876;8.346;2022-12-07T07:03:24;-0.20;99.90
9699;DHT22;10089;47.876;8.346;2022-12-07T07:05:50;-0.20;99.90
9699;DHT22;10089;47.876;8.346;2022-12-07T07:08:15;-0.20;99.90
9699;DHT22;10089;47.876;8.346;2022-12-07T07:10:41;-0.20;99.90
9699;DHT22;10089;47.876;8.346;2022-12-07T07:13:07;-0.30;99.90
9699;DHT22;10089;47.876;8.346;2022-12-07T07:15:33;-0.40;99.90
9699;DHT22;10089;47.876;8.346;2022-12-07T07:18:00;-0.40;99.90
9699;DHT22;10089;47.876;8.346;2022-12-07T07:20:26;-0.40;99.90
9699;DHT22;10089;47.876;8.346;2022-12-07T07:22:54;-0.40;99.90
9699;DHT22;10089;47.876;8.346;2022-12-07T07:25:21;-0.20;99.90
9699;DHT22;10089;47.876;8.346;2022-12-07T07:27:46;-0.40;99.90
9699;DHT22;10089;47.876;8.346;2022-12-07T07:30:12;-0.20;99.90
9699;DHT22;10089;47.876;8.346;2022-12-07T07:32:38;-0.50;99.90
9699;DHT22;10089;47.876;8.346;2022-12-07T07:35:04;-0.60;99.90
9699;DHT22;10089;47.876;8.346;2022-12-07T07:37:29;-0.60;99.90
9699;DHT22;10089;47.876;8.346;2022-12-07T07:39:55;-0.60;99.90
9699;DHT22;10089;47.876;8.346;2022-12-07T07:42:21;-0.20;99.90
9699;DHT22;10089;47.876;8.346;2022-12-07T07:44:47;-0.60;99.90
9699;DHT22;10089;47.876;8.346;2022-12-07T07:47:12;-0.70;99.90
9699;DHT22;10089;47.876;8.346;2022-12-07T07:49:38;-0.70;99.90
9699;DHT22;10089;47.876;8.346;2022-12-07T07:52:05;-0.70;95.20
9699;DHT22;10089;47.876;8.346;2022-12-07T07:54:31;-0.70;99.90
9699;DHT22;10089;47.876;8.346;2022-12-07T07:56:57;-0.70;62.90
9699;DHT22;10089;47.876;8.346;2022-12-07T07:59:23;-0.70;90.70
9699;DHT22;10089;47.876;8.346;2022-12-07T08:01:50;-0.70;56.20
9699;DHT22;10089;47.876;8.346;2022-12-07T08:04:15;-0.60;26.70
9699;DHT22;10089;47.876;8.346;2022-12-07T08:06:41;-0.60;14.90
9699;DHT22;10089;47.876;8.346;2022-12-07T08:09:08;0.00;20.00
9699;DHT22;10089;47.876;8.346;2022-12-07T08:11:34;-0.50;15.10
9699;DHT22;10089;47.876;8.346;2022-12-07T08:14:00;-0.50;1.00
9699;DHT22;10089;47.876;8.346;2022-12-07T08:16:26;-0.40;4.80
9699;DHT22;10089;47.876;8.346;2022-12-07T08:18:51;-0.40;1.00
9699;DHT22;10089;47.876;8.346;2022-12-07T08:21:17;-0.30;1.00
9699;DHT22;10089;47.876;8.346;2022-12-07T08:23:43;0.00;1.00
9699;DHT22;10089;47.876;8.346;2022-12-07T08:26:11;0.00;1.00
9699;DHT22;10089;47.876;8.346;2022-12-07T08:28:37;-0.30;1.00
9699;DHT22;10089;47.876;8.346;2022-12-07T08:31:09;-0.30;1.00
9699;DHT22;10089;47.876;8.346;2022-12-07T08:33:36;-0.20;1.00
9699;DHT22;10089;47.876;8.346;2022-12-07T08:36:08;-0.10;1.00
9699;DHT22;10089;47.876;8.346;2022-12-07T08:38:35;-0.10;1.00
9699;DHT22;10089;47.876;8.346;2022-12-07T08:41:01;-0.10;1.00
9699;DHT22;10089;47.876;8.346;2022-12-07T08:43:27;-0.10;1.00
9699;DHT22;10089;47.876;8.346;2022-12-07T08:46:11;-0.20;1.00
9699;DHT22;10089;47.876;8.346;2022-12-07T08:49:12;-0.20;1.00
9699;DHT22;10089;47.876;8.346;2022-12-07T08:51:39;-0.20;1.00
9699;DHT22;10089;47.876;8.346;2022-12-07T08:54:09;1.60;1.00
9699;DHT22;10089;47.876;8.346;2022-12-07T08:56:35;-0.10;1.00
9699;DHT22;10089;47.876;8.346;2022-12-07T08:59:01;0.10;1.00
9699;DHT22;10089;47.876;8.346;2022-12-07T09:01:28;0.20;1.00
9699;DHT22;10089;47.876;8.346;2022-12-07T09:03:54;0.50;1.00
9699;DHT22;10089;47.876;8.346;2022-12-07T09:06:19;0.80;1.00
9699;DHT22;10089;47.876;8.346;2022-12-07T09:08:48;1.30;1.00
9699;DHT22;10089;47.876;8.346;2022-12-07T09:11:15;1.60;99.90
9699;DHT22;10089;47.876;8.346;2022-12-07T09:13:41;2.50;99.90
9699;DHT22;10089;47.876;8.346;2022-12-07T09:16:06;2.40;1.00
9699;DHT22;10089;47.876;8.346;2022-12-07T09:18:32;1.80;1.00
9699;DHT22;10089;47.876;8.346;2022-12-07T09:20:58;2.80;99.90
9699;DHT22;10089;47.876;8.346;2022-12-07T09:23:24;3.50;1.00
9699;DHT22;10089;47.876;8.346;2022-12-07T09:25:49;3.30;37.60
9699;DHT22;10089;47.876;8.346;2022-12-07T09:28:15;3.30;99.90
9699;DHT22;10089;47.876;8.346;2022-12-07T09:30:48;4.20;1.00
9699;DHT22;10089;47.876;8.346;2022-12-07T09:33:13;4.20;1.00
9699;DHT22;10089;47.876;8.346;2022-12-07T09:35:45;5.10;1.00
9699;DHT22;10089;47.876;8.346;2022-12-07T09:38:11;5.30;1.00
9699;DHT22;10089;47.876;8.346;2022-12-07T09:40:37;5.40;99.90
9699;DHT22;10089;47.876;8.346;2022-12-07T09:43:02;5.50;1.00
9699;DHT22;10089;47.876;8.346;2022-12-07T09:45:34;6.10;99.90
9699;DHT22;10089;47.876;8.346;2022-12-07T09:48:02;6.00;81.80
9699;DHT22;10089;47.876;8.346;2022-12-07T09:50:29;6.00;1.00
9699;DHT22;10089;47.876;8.346;2022-12-07T09:53:11;5.40;1.00
9699;DHT22;10089;47.876;8.346;2022-12-07T09:55:41;4.70;16.90
9699;DHT22;10089;47.876;8.346;2022-12-07T09:58:25;3.70;99.90
9699;DHT22;10089;47.876;8.346;2022-12-07T10:01:21;4.20;99.90
9699;DHT22;10089;47.876;8.346;2022-12-07T10:03:50;4.90;99.90
9699;DHT22;10089;47.876;8.346;2022-12-07T10:06:16;5.50;99.90
9699;DHT22;10089;47.876;8.346;2022-12-07T10:08:42;5.30;28.90
9699;DHT22;10089;47.876;8.346;2022-12-07T10:11:09;6.30;1.00
9699;DHT22;10089;47.876;8.346;2022-12-07T10:13:37;6.40;1.00
9699;DHT22;10089;47.876;8.346;2022-12-07T10:16:03;5.50;1.00
9699;DHT22;10089;47.876;8.346;2022-12-07T10:18:33;5.60;1.00
9699;DHT22;10089;47.876;8.346;2022-12-07T10:24:43;5.70;45.30
9699;DHT22;10089;47.876;8.346;2022-12-07T10:26:52;5.90;1.00
9699;DHT22;10089;47.876;8.346;2022-12-07T10:29:19;6.20;1.00
9699;DHT22;10089;47.876;8.346;2022-12-07T10:31:48;6.10;1.00
9699;DHT22;10089;47.876;8.346;2022-12-07T10:34:23;6.50;1.00
9699;DHT22;10089;47.876;8.346;2022-12-07T10:36:51;6.60;1.00
9699;DHT22;10089;47.876;8.346;2022-12-07T10:39:22;5.80;1.00
9699;DHT22;10089;47.876;8.346;2022-12-07T10:44:24;6.40;1.00
9699;DHT22;10089;47.876;8.346;2022-12-07T10:52:38;6.30;1.00
9699;DHT22;10089;47.876;8.346;2022-12-07T11:08:47;5.50;1.00
9699;DHT22;10089;47.876;8.346;2022-12-07T11:14:34;5.90;1.00
9699;DHT22;10089;47.876;8.346;2022-12-07T11:17:10;6.70;1.00
9699;DHT22;10089;47.876;8.346;2022-12-07T11:27:45;5.90;1.00
9699;DHT22;10089;47.876;8.346;2022-12-07T11:30:27;6.60;1.00
9699;DHT22;10089;47.876;8.346;2022-12-07T11:35:50;4.80;1.00
9699;DHT22;10089;47.876;8.346;2022-12-07T11:38:33;4.80;23.40
9699;DHT22;10089;47.876;8.346;2022-12-07T11:41:05;5.30;99.90
9699;DHT22;10089;47.876;8.346;2022-12-07T11:43:50;5.90;1.00
9699;DHT22;10089;47.876;8.346;2022-12-07T11:46:17;5.30;1.00
9699;DHT22;10089;47.876;8.346;2022-12-07T11:48:52;5.20;99.90
9699;DHT22;10089;47.876;8.346;2022-12-07T11:51:21;5.20;1.00
9699;DHT22;10089;47.876;8.346;2022-12-07T11:53:59;5.30;1.00
9699;DHT22;10089;47.876;8.346;2022-12-07T11:56:28;5.80;1.00
9699;DHT22;10089;47.876;8.346;2022-12-07T11:59:15;6.00;1.00
9699;DHT22;10089;47.876;8.346;2022-12-07T12:01:48;5.10;1.00
9699;DHT22;10089;47.876;8.346;2022-12-07T12:04:32;4.60;89.80
9699;DHT22;10089;47.876;8.346;2022-12-07T12:06:59;4.90;58.00
9699;DHT22;10089;47.876;8.346;2022-12-07T12:09:33;4.80;99.90
9699;DHT22;10089;47.876;8.346;2022-12-07T12:12:29;4.60;99.90
9699;DHT22;10089;47.876;8.346;2022-12-07T12:15:18;5.00;99.90
9699;DHT22;10089;47.876;8.346;2022-12-07T12:21:04;4.90;1.00
9699;DHT22;10089;47.876;8.346;2022-12-07T12:23:54;4.50;99.90
9699;DHT22;10089;47.876;8.346;2022-12-07T12:26:27;4.60;99.90
9699;DHT22;10089;47.876;8.346;2022-12-07T12:28:59;4.50;99.90
9699;DHT22;10089;47.876;8.346;2022-12-07T12:31:39;4.50;1.00
9699;DHT22;10089;47.876;8.346;2022-12-07T12:34:34;4.80;99.90
9699;DHT22;10089;47.876;8.346;2022-12-07T12:37:38;4.70;99.90
9699;DHT22;10089;47.876;8.346;2022-12-07T12:42:51;4.50;99.90
9699;DHT22;10089;47.876;8.346;2022-12-07T12:50:24;3.80;49.80
9699;DHT22;10089;47.876;8.346;2022-12-07T12:53:12;3.80;1.00
9699;DHT22;10089;47.876;8.346;2022-12-07T13:04:28;3.50;1.00
9699;DHT22;10089;47.876;8.346;2022-12-07T13:06:55;3.50;1.00
9699;DHT22;10089;47.876;8.346;2022-12-07T13:09:23;3.30;99.90
9699;DHT22;10089;47.876;8.346;2022-12-07T13:12:02;3.40;99.90
9699;DHT22;10089;47.876;8.346;2022-12-07T13:17:11;3.40;99.90
9699;DHT22;10089;47.876;8.346;2022-12-07T13:25:44;3.30;99.90
9699;DHT22;10089;47.876;8.346;2022-12-07T13:28:18;3.10;99.90
9699;DHT22;10089;47.876;8.346;2022-12-07T13:31:18;3.10;1.00
9699;DHT22;10089;47.876;8.346;2022-12-07T13:33:47;3.00;1.00
9699;DHT22;10089;47.876;8.346;2022-12-07T13:39:00;3.00;99.90
9699;DHT22;10089;47.876;8.346;2022-12-07T13:41:35;2.90;1.00
9699;DHT22;10089;47.876;8.346;2022-12-07T13:44:16;2.80;99.90
9699;DHT22;10089;47.876;8.346;2022-12-07T13:47:06;2.80;1.00
9699;DHT22;10089;47.876;8.346;2022-12-07T13:49:38;2.70;99.90
9699;DHT22;10089;47.876;8.346;2022-12-07T13:54:54;2.70;99.90
9699;DHT22;10089;47.876;8.346;2022-12-07T13:57:22;2.50;1.00
9699;DHT22;10089;47.876;8.346;2022-12-07T13:59:48;2.50;99.90
9699;DHT22;10089;47.876;8.346;2022-12-07T14:02:32;2.60;1.00
9699;DHT22;10089;47.876;8.346;2022-12-07T14:05:14;2.70;1.00
9699;DHT22;10089;47.876;8.346;2022-12-07T14:12:54;2.70;99.90
9699;DHT22;10089;47.876;8.346;2022-12-07T14:15:29;2.70;1.00
9699;DHT22;10089;47.876;8.346;2022-12-07T14:17:57;2.70;1.00
9699;DHT22;10089;47.876;8.346;2022-12-07T14:20:34;2.60;22.70
9699;DHT22;10089;47.876;8.346;2022-12-07T14:23:00;2.50;99.90
9699;DHT22;10089;47.876;8.346;2022-12-07T14:25:47;2.60;1.00
9699;DHT22;10089;47.876;8.346;2022-12-07T14:28:28;2.60;1.00
9699;DHT22;10089;47.876;8.346;2022-12-07T14:30:54;2.60;99.90
9699;DHT22;10089;47.876;8.346;2022-12-07T14:33:21;2.60;1.00
9699;DHT22;10089;47.876;8.346;2022-12-07T14:35:47;2.80;1.00
9699;DHT22;10089;47.876;8.346;2022-12-07T14:38:12;2.90;1.00
9699;DHT22;10089;47.876;8.346;2022-12-07T14:40:38;2.60;99.90
9699;DHT22;10089;47.876;8.346;2022-12-07T14:43:09;2.70;99.90
9699;DHT22;10089;47.876;8.346;2022-12-07T14:45:36;2.50;99.90
9699;DHT22;10089;47.876;8.346;2022-12-07T14:48:02;2.50;21.70
9699;DHT22;10089;47.876;8.346;2022-12-07T14:50:28;2.40;99.90
9699;DHT22;10089;47.876;8.346;2022-12-07T14:52:57;2.40;1.00
9699;DHT22;10089;47.876;8.346;2022-12-07T14:55:27;2.50;1.50
9699;DHT22;10089;47.876;8.346;2022-12-07T14:57:55;2.40;1.00
9699;DHT22;10089;47.876;8.346;2022-12-07T15:00:22;2.40;1.00
9699;DHT22;10089;47.876;8.346;2022-12-07T15:02:49;2.40;99.90
9699;DHT22;10089;47.876;8.346;2022-12-07T15:05:16;2.50;1.00
9699;DHT22;10089;47.876;8.346;2022-12-07T15:07:43;2.40;1.00
9699;DHT22;10089;47.876;8.346;2022-12-07T15:10:18;2.40;1.00
9699;DHT22;10089;47.876;8.346;2022-12-07T15:12:45;2.30;99.90
9699;DHT22;10089;47.876;8.346;2022-12-07T15:15:11;2.40;99.90
9699;DHT22;10089;47.876;8.346;2022-12-07T15:17:37;2.40;1.00
9699;DHT22;10089;47.876;8.346;2022-12-07T15:20:04;2.40;1.00
9699;DHT22;10089;47.876;8.346;2022-12-07T15:22:30;2.40;99.90
9699;DHT22;10089;47.876;8.346;2022-12-07T15:24:57;2.70;1.00
9699;DHT22;10089;47.876;8.346;2022-12-07T15:27:22;2.30;1.00
9699;DHT22;10089;47.876;8.346;2022-12-07T15:29:48;2.10;99.90
9699;DHT22;10089;47.876;8.346;2022-12-07T15:32:14;2.00;1.00
9699;DHT22;10089;47.876;8.346;2022-12-07T15:34:39;2.70;50.90
9699;DHT22;10089;47.876;8.346;2022-12-07T15:37:05;2.40;1.00
9699;DHT22;10089;47.876;8.346;2022-12-07T15:39:31;1.90;86.90
9699;DHT22;10089;47.876;8.346;2022-12-07T15:41:57;1.90;1.00
9699;DHT22;10089;47.876;8.346;2022-12-07T15:44:23;1.90;1.00
9699;DHT22;10089;47.876;8.346;2022-12-07T15:47:07;1.90;1.00
9699;DHT22;10089;47.876;8.346;2022-12-07T15:49:32;1.90;1.00
9699;DHT22;10089;47.876;8.346;2022-12-07T15:51:58;1.90;1.00
9699;DHT22;10089;47.876;8.346;2022-12-07T15:54:26;1.80;1.00
9699;DHT22;10089;47.876;8.346;2022-12-07T15:56:52;1.80;1.00
9699;DHT22;10089;47.876;8.346;2022-12-07T15:59:18;1.80;99.90
9699;DHT22;10089;47.876;8.346;2022-12-07T16:01:44;1.80;99.90
9699;DHT22;10089;47.876;8.346;2022-12-07T16:04:10;1.70;1.00
9699;DHT22;10089;47.876;8.346;2022-12-07T16:06:36;1.70;1.00
9699;DHT22;10089;47.876;8.346;2022-12-07T16:09:02;2.00;1.00
9699;DHT22;10089;47.876;8.346;2022-12-07T16:11:27;1.70;1.00
9699;DHT22;10089;47.876;8.346;2022-12-07T16:13:53;1.60;99.90
9699;DHT22;10089;47.876;8.346;2022-12-07T16:16:19;1.60;94.80
9699;DHT22;10089;47.876;8.346;2022-12-07T16:18:48;1.60;1.00
9699;DHT22;10089;47.876;8.346;2022-12-07T16:21:14;1.90;1.00
9699;DHT22;10089;47.876;8.346;2022-12-07T16:23:40;1.50;1.00
9699;DHT22;10089;47.876;8.346;2022-12-07T16:26:15;1.40;60.40
9699;DHT22;10089;47.876;8.346;2022-12-07T16:28:41;1.40;99.90
9699;DHT22;10089;47.876;8.346;2022-12-07T16:31:12;1.30;1.00
9699;DHT22;10089;47.876;8.346;2022-12-07T16:33:40;1.30;99.90
9699;DHT22;10089;47.876;8.346;2022-12-07T16:36:07;1.30;1.00
9699;DHT22;10089;47.876;8.346;2022-12-07T16:38:34;1.30;99.90
9699;DHT22;10089;47.876;8.346;2022-12-07T16:41:00;1.30;1.00
9699;DHT22;10089;47.876;8.346;2022-12-07T16:43:26;1.40;1.00
9699;DHT22;10089;47.876;8.346;2022-12-07T16:45:52;1.30;1.00
9699;DHT22;10089;47.876;8.346;2022-12-07T16:48:18;1.20;1.00
9699;DHT22;10089;47.876;8.346;2022-12-07T16:50:44;1.20;99.90
9699;DHT22;10089;47.876;8.346;2022-12-07T16:53:11;1.10;99.90
9699;DHT22;10089;47.876;8.346;2022-12-07T16:55:39;1.20;1.00
9699;DHT22;10089;47.876;8.346;2022-12-07T16:58:06;1.70;1.00
9699;DHT22;10089;47.876;8.346;2022-12-07T17:00:32;1.30;99.90
9699;DHT22;10089;47.876;8.346;2022-12-07T17:02:58;1.10;99.90
9699;DHT22;10089;47.876;8.346;2022-12-07T17:05:25;1.20;99.90
9699;DHT22;10089;47.876;8.346;2022-12-07T17:07:53;1.20;1.00
9699;DHT22;10089;47.876;8.346;2022-12-07T17:10:19;1.10;99.90
9699;DHT22;10089;47.876;8.346;2022-12-07T17:12:45;1.30;1.00
9699;DHT22;10089;47.876;8.346;2022-12-07T17:15:11;1.20;99.90
9699;DHT22;10089;47.876;8.346;2022-12-07T17:17:50;1.00;1.00
9699;DHT22;10089;47.876;8.346;2022-12-07T17:20:17;1.00;1.00
9699;DHT22;10089;47.876;8.346;2022-12-07T17:22:43;0.70;99.90
9699;DHT22;10089;47.876;8.346;2022-12-07T17:25:09;1.00;1.00
9699;DHT22;10089;47.876;8.346;2022-12-07T17:27:35;0.40;1.00
9699;DHT22;10089;47.876;8.346;2022-12-07T17:30:02;0.50;99.90
9699;DHT22;10089;47.876;8.346;2022-12-07T17:32:28;0.50;99.90
9699;DHT22;10089;47.876;8.346;2022-12-07T17:34:54;0.60;99.90
9699;DHT22;10089;47.876;8.346;2022-12-07T17:37:20;0.50;99.90
9699;DHT22;10089;47.876;8.346;2022-12-07T17:39:45;0.30;99.90
9699;DHT22;10089;47.876;8.346;2022-12-07T17:42:11;0.10;1.00
9699;DHT22;10089;47.876;8.346;2022-12-07T17:44:55;0.10;1.00
9699;DHT22;10089;47.876;8.346;2022-12-07T17:47:20;0.10;1.00
9699;DHT22;10089;47.876;8.346;2022-12-07T17:49:46;0.40;1.00
9699;DHT22;10089;47.876;8.346;2022-12-07T17:52:13;0.20;99.90
9699;DHT22;10089;47.876;8.346;2022-12-07T17:54:57;0.10;99.90
9699;DHT22;10089;47.876;8.346;2022-12-07T17:57:23;0.10;99.90
9699;DHT22;10089;47.876;8.346;2022-12-07T17:59:48;0.00;99.90
9699;DHT22;10089;47.876;8.346;2022-12-07T18:02:15;0.00;99.90
9699;DHT22;10089;47.876;8.346;2022-12-07T18:04:41;0.00;99.90
9699;DHT22;10089;47.876;8.346;2022-12-07T18:07:08;-0.10;99.90
9699;DHT22;10089;47.876;8.346;2022-12-07T18:09:34;0.70;1.00
9699;DHT22;10089;47.876;8.346;2022-12-07T18:12:00;-0.10;1.00